SPCL/PCL METAR and TAF weather

Enter ICAO airport designator
Station Type Date Time Source
SPCL METAR 2021/04/17 01:00 UTC NOAA

SPCL 170100Z 00000KT 9999 SCT020 26/25 Q1009 RMK PP000


Station Type Date Time Source
SPCL Decoded METAR 2021/04/17 01:00 UTC NOAA

Pucallpa, Peru (SPCL) 08-25S 074-36W 149M
Apr 16, 2021 - 09:00 PM EDT / 2021.04.17 0100 UTC
Wind: Calm:0
Visibility: greater than 7 mile(s):0
Sky conditions: partly cloudy
Temperature: 78 F (26 C)
Dew Point: 77 F (25 C)
Relative Humidity: 94%
Pressure (altimeter): 29.80 in. Hg (1009 hPa)
ob: SPCL 170100Z 00000KT 9999 SCT020 26/25 Q1009 RMK PP000
cycle: 1

Station Type Date Time Source
SPCL TAF 2021/04/16 18:48 UTC NOAA

TAF TAF SPCL 161700Z 1618/1718 00000KT 9999 BKN020 TX33/1620Z TN23/1711Z PROB40 1619/1622 SCT030
TEMPO 1705/1709 08012KT 4000 RADZ BKN010 OVC080

Example: see airport list